Time;durP1;ratioP1;P1;durP2;ratioP2;P2;SDS_P1;SDS_P2;PMS_P1;PMS_P2;Temp;Humidity;BMP_temperature;BMP_pressure;BME280_temperature;BME280_humidity;BME280_pressure;Samples;Min_cycle;Max_cycle;Signal;HPM_P1;HPM_P2
2023/05/25 00:01:25;;;;;;;18.83;7.67;;;10.40;99.90;;;;;;5101712;28;20185;-43
2023/05/25 00:03:54;;;;;;;13.90;7.43;;;10.40;99.90;;;;;;5104077;28;20213;-44
2023/05/25 00:06:21;;;;;;;13.87;8.27;;;10.40;99.90;;;;;;5093205;28;20200;-44
2023/05/25 00:08:53;;;;;;;13.27;7.67;;;10.40;99.90;;;;;;5099676;28;20189;-47
2023/05/25 00:11:22;;;;;;;13.33;7.47;;;10.40;99.90;;;;;;5072980;28;20228;-45
2023/05/25 00:13:49;;;;;;;9.60;7.63;;;10.40;99.90;;;;;;5102358;28;20286;-46
2023/05/25 00:16:16;;;;;;;14.03;7.60;;;10.40;99.90;;;;;;5102901;28;20545;-43
2023/05/25 00:18:43;;;;;;;12.70;7.13;;;10.40;99.90;;;;;;5095745;28;20190;-44
2023/05/25 00:21:10;;;;;;;15.70;7.43;;;10.30;99.90;;;;;;5096735;28;20196;-47
2023/05/25 00:23:37;;;;;;;14.87;7.23;;;10.30;99.90;;;;;;5094264;28;20209;-46
2023/05/25 00:26:05;;;;;;;9.70;7.57;;;10.20;99.90;;;;;;5077936;28;20212;-44
2023/05/25 00:28:33;;;;;;;14.57;6.87;;;10.20;99.90;;;;;;5098691;28;20204;-44
2023/05/25 00:30:59;;;;;;;12.10;6.40;;;10.20;99.90;;;;;;5104249;28;20711;-45
2023/05/25 00:33:26;;;;;;;11.70;7.00;;;10.20;99.90;;;;;;5100470;28;20247;-45
2023/05/25 00:35:53;;;;;;;12.33;6.27;;;10.10;99.90;;;;;;5094827;28;20196;-46
2023/05/25 00:38:20;;;;;;;14.87;8.00;;;10.10;99.90;;;;;;5092462;28;20201;-45
2023/05/25 00:40:47;;;;;;;14.67;6.23;;;10.10;99.90;;;;;;5077989;28;21303;-46
2023/05/25 00:43:16;;;;;;;14.60;6.77;;;10.10;99.90;;;;;;5101520;28;20185;-44
2023/05/25 00:45:43;;;;;;;9.17;5.97;;;10.10;99.90;;;;;;5098967;28;20200;-44
2023/05/25 00:48:10;;;;;;;10.23;6.07;;;10.10;99.90;;;;;;5101979;28;20201;-44
2023/05/25 00:50:39;;;;;;;12.17;6.17;;;10.00;99.90;;;;;;5095950;28;20247;-44
2023/05/25 00:53:07;;;;;;;9.30;6.10;;;10.00;99.90;;;;;;5084284;28;20272;-46
2023/05/25 00:55:38;;;;;;;11.90;6.07;;;10.00;99.90;;;;;;5094721;28;20224;-44
2023/05/25 00:58:08;;;;;;;11.93;6.10;;;10.00;99.90;;;;;;5083024;28;20560;-44
2023/05/25 01:00:40;;;;;;;13.70;6.17;;;10.00;99.90;;;;;;5100093;28;20273;-46
2023/05/25 01:03:12;;;;;;;10.30;5.53;;;10.00;99.90;;;;;;5103665;28;20192;-45
2023/05/25 01:05:43;;;;;;;13.53;5.97;;;9.90;99.90;;;;;;5092796;28;20217;-45
2023/05/25 01:08:13;;;;;;;15.57;6.13;;;9.90;99.90;;;;;;5085327;28;20216;-46
2023/05/25 01:10:42;;;;;;;14.40;7.20;;;9.90;99.90;;;;;;5077102;28;20228;-44
2023/05/25 01:13:09;;;;;;;12.90;6.23;;;9.90;99.90;;;;;;5076548;28;20209;-44
2023/05/25 01:15:38;;;;;;;11.70;5.97;;;9.90;99.90;;;;;;5094576;28;20217;-44
2023/05/25 01:18:08;;;;;;;15.20;6.40;;;9.90;99.90;;;;;;5097299;28;20190;-44
2023/05/25 01:20:35;;;;;;;11.63;6.70;;;9.90;99.90;;;;;;5092719;28;20197;-45
2023/05/25 01:23:12;;;;;;;12.33;6.03;;;9.90;99.90;;;;;;5106792;28;20559;-44
2023/05/25 01:25:45;;;;;;;10.23;6.03;;;9.80;99.90;;;;;;5100585;28;20212;-44
2023/05/25 01:28:24;;;;;;;15.93;6.47;;;9.80;99.90;;;;;;5083429;28;20217;-45
2023/05/25 01:30:53;;;;;;;11.60;6.40;;;9.70;99.90;;;;;;5107371;28;20212;-46
2023/05/25 01:33:20;;;;;;;13.77;6.37;;;9.70;99.90;;;;;;5096544;27;20197;-44
2023/05/25 01:35:48;;;;;;;12.70;6.57;;;9.70;99.90;;;;;;5101063;28;20606;-45
2023/05/25 01:38:17;;;;;;;13.50;6.53;;;9.70;99.90;;;;;;5101731;28;20189;-43
2023/05/25 01:40:44;;;;;;;19.43;8.07;;;9.70;99.90;;;;;;5098605;28;20213;-44
2023/05/25 01:43:11;;;;;;;11.97;6.53;;;9.70;99.90;;;;;;5098743;28;20181;-43
2023/05/25 01:45:38;;;;;;;15.73;7.40;;;9.70;99.90;;;;;;5089425;28;20217;-44
2023/05/25 01:48:09;;;;;;;12.53;6.73;;;9.70;99.90;;;;;;5098954;28;20201;-43
2023/05/25 01:50:53;;;;;;;14.67;7.47;;;9.60;99.90;;;;;;5104045;28;20288;-44
2023/05/25 01:53:26;;;;;;;11.77;7.40;;;9.60;99.90;;;;;;5099182;28;20235;-45
2023/05/25 01:55:56;;;;;;;15.40;7.30;;;9.60;99.90;;;;;;5099242;28;20198;-46
2023/05/25 01:58:26;;;;;;;20.23;8.13;;;9.60;99.90;;;;;;5101707;28;20189;-45
2023/05/25 02:00:55;;;;;;;14.27;7.80;;;9.60;99.90;;;;;;5076942;28;20194;-44
2023/05/25 02:03:23;;;;;;;12.10;7.27;;;9.50;99.90;;;;;;5097710;28;20186;-46
2023/05/25 02:05:51;;;;;;;19.67;8.23;;;9.50;99.90;;;;;;5106827;28;20706;-45
2023/05/25 02:08:19;;;;;;;15.03;8.07;;;9.50;99.90;;;;;;5102724;28;20197;-47
2023/05/25 02:10:47;;;;;;;20.87;9.93;;;9.50;99.90;;;;;;5096484;28;20221;-44
2023/05/25 02:13:14;;;;;;;16.80;9.30;;;9.40;99.90;;;;;;5101981;28;20193;-44
2023/05/25 02:15:40;;;;;;;22.17;11.03;;;9.40;99.90;;;;;;5075297;28;20222;-44
2023/05/25 02:18:07;;;;;;;19.00;10.73;;;9.40;99.90;;;;;;5102792;28;20197;-47
2023/05/25 02:20:36;;;;;;;22.00;11.03;;;9.30;99.90;;;;;;5103620;27;20189;-46
2023/05/25 02:23:03;;;;;;;21.47;10.13;;;9.30;99.90;;;;;;5102183;28;20189;-47
2023/05/25 02:25:30;;;;;;;18.47;10.70;;;9.40;99.90;;;;;;5093799;28;20579;-47
2023/05/25 02:27:58;;;;;;;18.07;10.73;;;9.40;99.90;;;;;;5092167;28;20190;-44
2023/05/25 02:30:25;;;;;;;15.27;9.43;;;9.40;99.90;;;;;;5075819;28;20934;-45
2023/05/25 02:32:55;;;;;;;18.97;9.57;;;9.40;99.90;;;;;;5104173;28;20197;-48
2023/05/25 02:35:22;;;;;;;17.03;9.07;;;9.40;99.90;;;;;;5100237;28;20240;-45
2023/05/25 02:37:49;;;;;;;18.53;9.43;;;9.40;99.90;;;;;;5103758;28;20883;-44
2023/05/25 02:40:17;;;;;;;15.30;9.30;;;9.30;99.90;;;;;;5100586;28;20679;-47
2023/05/25 02:42:44;;;;;;;14.07;9.00;;;9.40;99.90;;;;;;5082471;28;20185;-47
2023/05/25 02:45:12;;;;;;;17.67;8.33;;;9.40;99.90;;;;;;5091821;28;20209;-45
2023/05/25 02:47:40;;;;;;;19.83;9.47;;;9.30;99.90;;;;;;5093674;28;20220;-47
2023/05/25 02:50:08;;;;;;;20.37;9.47;;;9.30;99.90;;;;;;5104151;28;20209;-44
2023/05/25 02:52:40;;;;;;;16.97;8.90;;;9.30;99.90;;;;;;5102858;28;20277;-47
2023/05/25 02:55:09;;;;;;;14.40;9.10;;;9.30;99.90;;;;;;5096868;28;20332;-48
2023/05/25 02:57:37;;;;;;;15.10;9.10;;;9.30;99.90;;;;;;5086160;28;20209;-45
2023/05/25 03:00:11;;;;;;;17.03;9.17;;;9.30;99.90;;;;;;5103872;28;20276;-43
2023/05/25 03:02:40;;;;;;;16.37;9.43;;;9.20;99.90;;;;;;5081035;28;20247;-46
2023/05/25 03:05:07;;;;;;;19.70;10.23;;;9.20;99.90;;;;;;5103790;28;20209;-47
2023/05/25 03:07:35;;;;;;;18.27;9.57;;;9.20;99.90;;;;;;5097062;28;20607;-44
2023/05/25 03:10:02;;;;;;;17.03;9.57;;;9.20;99.90;;;;;;5097301;28;20195;-45
2023/05/25 03:12:29;;;;;;;15.77;9.77;;;9.20;99.90;;;;;;5096206;28;20224;-44
2023/05/25 03:14:57;;;;;;;15.70;9.30;;;9.30;99.90;;;;;;5084568;28;20222;-45
2023/05/25 03:17:24;;;;;;;21.40;9.77;;;9.30;99.90;;;;;;5075094;28;20687;-44
2023/05/25 03:19:52;;;;;;;17.37;9.73;;;9.30;99.90;;;;;;5103511;28;20185;-44
2023/05/25 03:22:20;;;;;;;18.53;9.40;;;9.40;99.90;;;;;;5097202;28;20712;-43
2023/05/25 03:24:49;;;;;;;20.30;9.40;;;9.40;99.90;;;;;;5090582;28;20247;-46
2023/05/25 03:27:17;;;;;;;19.03;9.70;;;9.40;99.90;;;;;;5093266;28;20197;-43
2023/05/25 03:29:43;;;;;;;15.33;8.83;;;9.40;99.90;;;;;;5093307;28;20196;-44
2023/05/25 03:32:10;;;;;;;17.93;8.50;;;9.50;99.90;;;;;;5082372;28;20315;-43
2023/05/25 03:34:39;;;;;;;21.67;8.93;;;9.40;99.90;;;;;;5096154;28;20217;-44
2023/05/25 03:37:09;;;;;;;12.60;9.33;;;9.40;99.90;;;;;;5097095;28;20247;-43
2023/05/25 03:39:36;;;;;;;17.33;8.90;;;9.50;99.90;;;;;;5091407;28;20194;-44
2023/05/25 03:42:05;;;;;;;16.70;9.50;;;9.50;99.90;;;;;;5099128;28;20196;-48
2023/05/25 03:44:32;;;;;;;18.60;8.67;;;9.50;99.90;;;;;;5091369;28;20218;-46
2023/05/25 03:46:59;;;;;;;20.40;8.30;;;9.50;99.90;;;;;;5070900;28;20198;-43
2023/05/25 03:49:27;;;;;;;19.73;9.27;;;9.60;99.90;;;;;;5103244;28;20189;-43
2023/05/25 03:51:53;;;;;;;18.13;9.60;;;9.60;99.90;;;;;;5094343;28;20235;-44
2023/05/25 03:54:22;;;;;;;17.17;9.37;;;9.50;99.90;;;;;;5099330;28;20236;-44
2023/05/25 03:56:49;;;;;;;16.37;8.47;;;9.50;99.90;;;;;;5101662;28;20209;-45
2023/05/25 03:59:17;;;;;;;14.53;7.77;;;9.50;99.90;;;;;;5102815;28;20209;-44
2023/05/25 04:01:47;;;;;;;19.90;8.77;;;9.50;99.90;;;;;;5074549;28;20186;-44
2023/05/25 04:04:14;;;;;;;16.13;8.40;;;9.60;99.90;;;;;;5072506;28;20217;-44
2023/05/25 04:06:44;;;;;;;13.97;7.43;;;9.50;99.90;;;;;;5084807;28;20201;-44
2023/05/25 04:09:11;;;;;;;13.10;7.23;;;9.50;99.90;;;;;;5102125;28;20229;-46
2023/05/25 04:11:39;;;;;;;16.80;8.30;;;9.50;99.90;;;;;;5100017;27;20216;-46
2023/05/25 04:14:07;;;;;;;15.13;6.70;;;9.50;99.90;;;;;;5101975;28;20698;-44
2023/05/25 04:16:39;;;;;;;15.03;7.37;;;9.50;99.90;;;;;;5089915;28;20197;-45
2023/05/25 04:19:07;;;;;;;14.37;6.60;;;9.50;99.90;;;;;;5073881;28;20262;-46
2023/05/25 04:21:35;;;;;;;12.13;7.03;;;9.50;99.90;;;;;;5082151;28;20276;-47
2023/05/25 04:24:01;;;;;;;17.87;6.17;;;9.60;99.90;;;;;;5101068;28;20209;-45
2023/05/25 04:26:29;;;;;;;16.53;7.83;;;9.60;99.90;;;;;;5098372;28;20200;-44
2023/05/25 04:29:00;;;;;;;19.50;6.63;;;9.60;99.90;;;;;;5100250;28;20193;-45
2023/05/25 04:31:40;;;;;;;20.70;7.33;;;9.70;99.90;;;;;;5079027;28;20256;-45
2023/05/25 04:34:13;;;;;;;10.47;6.33;;;9.60;99.90;;;;;;5074462;28;20228;-43
2023/05/25 04:37:04;;;;;;;11.67;6.20;;;9.70;99.90;;;;;;5092923;28;20209;-44
2023/05/25 04:39:32;;;;;;;10.90;5.97;;;9.80;99.90;;;;;;5085251;28;20289;-45
2023/05/25 04:42:03;;;;;;;11.27;6.17;;;9.80;99.90;;;;;;5101762;28;20584;-44
2023/05/25 04:44:33;;;;;;;13.70;5.90;;;9.80;99.90;;;;;;5095892;28;20220;-46
2023/05/25 04:47:01;;;;;;;11.13;6.63;;;9.80;99.90;;;;;;5069145;28;20206;-43
2023/05/25 04:49:32;;;;;;;9.17;5.40;;;9.90;99.90;;;;;;5061832;28;22098;-45
2023/05/25 04:52:00;;;;;;;14.23;5.90;;;9.90;99.90;;;;;;5077621;28;21830;-45
2023/05/25 04:54:31;;;;;;;15.50;5.97;;;9.90;99.90;;;;;;5081863;28;20643;-46
2023/05/25 04:57:02;;;;;;;10.43;5.60;;;9.90;99.90;;;;;;5080995;28;20881;-42
2023/05/25 04:59:32;;;;;;;11.37;6.00;;;9.90;99.90;;;;;;5099241;28;20272;-42
2023/05/25 05:02:00;;;;;;;17.37;6.83;;;9.90;99.90;;;;;;5069455;28;20254;-43
2023/05/25 05:04:27;;;;;;;13.93;5.80;;;10.00;99.90;;;;;;5094587;28;20232;-42
2023/05/25 05:06:54;;;;;;;11.80;6.53;;;10.10;99.90;;;;;;5060418;28;20228;-42
2023/05/25 05:09:24;;;;;;;14.77;5.57;;;10.10;99.90;;;;;;5086376;28;20202;-43
2023/05/25 05:11:51;;;;;;;10.87;6.00;;;10.10;99.90;;;;;;5078587;28;20212;-44
2023/05/25 05:14:19;;;;;;;13.10;6.27;;;10.20;99.90;;;;;;5096082;28;20240;-43
2023/05/25 05:16:48;;;;;;;16.57;5.73;;;10.20;99.90;;;;;;5093684;28;20196;-44
2023/05/25 05:19:15;;;;;;;10.33;6.00;;;10.20;99.90;;;;;;5086485;28;20663;-44
2023/05/25 05:21:42;;;;;;;15.47;5.90;;;10.20;99.90;;;;;;5065453;28;20197;-42
2023/05/25 05:24:09;;;;;;;11.07;6.00;;;10.30;99.90;;;;;;5084491;28;20225;-46
2023/05/25 05:26:37;;;;;;;9.73;5.83;;;10.30;99.90;;;;;;5092587;28;20203;-46
2023/05/25 05:29:05;;;;;;;11.00;5.30;;;10.30;99.90;;;;;;5079104;28;20281;-45
2023/05/25 05:31:35;;;;;;;9.70;5.13;;;10.30;99.90;;;;;;5093011;28;20220;-44
2023/05/25 05:34:04;;;;;;;17.67;5.80;;;10.40;99.90;;;;;;5086291;28;20226;-44
2023/05/25 05:36:32;;;;;;;8.97;5.00;;;10.40;99.90;;;;;;5074750;28;20210;-43
2023/05/25 05:38:59;;;;;;;11.47;5.10;;;10.40;99.90;;;;;;5089443;28;20194;-46
2023/05/25 05:41:28;;;;;;;10.80;5.23;;;10.50;99.90;;;;;;5081743;28;20226;-43
2023/05/25 05:43:57;;;;;;;18.00;5.83;;;10.50;99.90;;;;;;5084589;28;20221;-42
2023/05/25 05:46:26;;;;;;;19.37;5.60;;;10.60;99.90;;;;;;5098860;28;20182;-42
2023/05/25 05:48:55;;;;;;;16.07;5.73;;;10.60;99.90;;;;;;5090888;28;20209;-42
2023/05/25 05:51:24;;;;;;;10.57;4.90;;;10.70;99.90;;;;;;5068412;28;20213;-42
2023/05/25 05:53:50;;;;;;;12.50;4.87;;;10.80;99.90;;;;;;5093322;28;20266;-45
2023/05/25 05:56:20;;;;;;;11.13;4.90;;;10.90;99.90;;;;;;5082818;28;20342;-43
2023/05/25 05:58:50;;;;;;;17.80;5.07;;;10.90;99.90;;;;;;5090650;28;20208;-44
2023/05/25 06:01:18;;;;;;;9.70;4.83;;;10.90;99.90;;;;;;5097882;28;20185;-45
2023/05/25 06:03:46;;;;;;;10.80;5.30;;;11.00;99.90;;;;;;5088925;28;20214;-51
2023/05/25 06:06:12;;;;;;;13.40;5.30;;;11.00;99.90;;;;;;5071657;28;20194;-59
2023/05/25 06:08:42;;;;;;;15.67;5.20;;;11.10;99.90;;;;;;5083415;28;20196;-50
2023/05/25 06:11:08;;;;;;;18.30;5.13;;;11.00;99.90;;;;;;5082982;28;20204;-57
2023/05/25 06:13:36;;;;;;;13.90;5.07;;;11.10;99.90;;;;;;5090218;28;20242;-56
2023/05/25 06:16:03;;;;;;;15.07;4.27;;;11.10;99.90;;;;;;5094807;28;20205;-50
2023/05/25 06:18:30;;;;;;;11.20;4.70;;;11.10;99.90;;;;;;5098479;28;20186;-57
2023/05/25 06:20:57;;;;;;;10.57;4.17;;;11.10;99.90;;;;;;5084661;28;20185;-47
2023/05/25 06:23:24;;;;;;;12.87;4.57;;;11.20;99.90;;;;;;5070793;28;20201;-52
2023/05/25 06:25:53;;;;;;;15.17;4.97;;;11.20;99.90;;;;;;5077662;28;22922;-49
2023/05/25 06:28:21;;;;;;;13.20;4.53;;;11.30;99.90;;;;;;5091395;28;20200;-49
2023/05/25 06:30:50;;;;;;;16.50;5.03;;;11.30;99.90;;;;;;5090366;28;20190;-51
2023/05/25 06:33:17;;;;;;;15.20;4.80;;;11.40;99.90;;;;;;5093600;28;20217;-53
2023/05/25 06:35:43;;;;;;;17.00;5.13;;;11.50;99.90;;;;;;5086612;28;20721;-56
2023/05/25 06:38:11;;;;;;;9.70;3.43;;;11.70;99.90;;;;;;5075332;28;20281;-51
2023/05/25 06:40:38;;;;;;;15.33;4.37;;;11.80;99.90;;;;;;5089215;28;20205;-56
2023/05/25 06:43:06;;;;;;;10.60;4.13;;;11.90;99.90;;;;;;5091873;28;20190;-54
2023/05/25 06:45:55;;;;;;;16.13;4.60;;;12.00;99.90;;;;;;5091519;28;20916;-52
2023/05/25 06:48:22;;;;;;;16.07;4.67;;;12.10;99.90;;;;;;5094506;28;20206;-48
2023/05/25 06:50:49;;;;;;;17.90;4.60;;;12.20;99.90;;;;;;5082901;28;20204;-53
2023/05/25 06:53:17;;;;;;;12.87;3.67;;;12.30;99.90;;;;;;5078141;28;20221;-51
2023/05/25 06:55:43;;;;;;;21.90;5.10;;;12.30;99.90;;;;;;5083358;28;20221;-57
2023/05/25 06:58:12;;;;;;;11.83;3.83;;;12.50;99.90;;;;;;5092552;28;20202;-49
2023/05/25 07:00:38;;;;;;;15.67;4.07;;;12.60;99.90;;;;;;5095464;28;20204;-58
2023/05/25 07:03:05;;;;;;;12.30;4.00;;;12.70;99.90;;;;;;5090907;28;20197;-53
2023/05/25 07:05:32;;;;;;;13.47;4.50;;;12.80;99.90;;;;;;5085891;28;20810;-57
2023/05/25 07:07:59;;;;;;;19.03;4.47;;;12.70;99.90;;;;;;5069747;28;20209;-51
2023/05/25 07:10:25;;;;;;;18.23;4.47;;;12.70;99.90;;;;;;5100773;28;20186;-48
2023/05/25 07:12:53;;;;;;;16.50;4.90;;;12.70;99.90;;;;;;5076098;28;20856;-51
2023/05/25 07:15:21;;;;;;;16.57;4.27;;;12.70;99.90;;;;;;5092405;28;20715;-56
2023/05/25 07:17:48;;;;;;;13.17;3.70;;;12.70;99.90;;;;;;5091543;28;20457;-52
2023/05/25 07:20:15;;;;;;;12.30;4.10;;;12.90;99.90;;;;;;5085168;28;20213;-57
2023/05/25 07:22:43;;;;;;;16.17;4.73;;;12.90;99.90;;;;;;5088140;28;20201;-51
2023/05/25 07:25:10;;;;;;;18.27;4.17;;;12.90;99.90;;;;;;5062587;28;20766;-57
2023/05/25 07:27:36;;;;;;;17.20;4.43;;;12.90;99.90;;;;;;5078050;28;20251;-58
2023/05/25 07:30:04;;;;;;;11.47;3.57;;;13.00;99.90;;;;;;5087539;28;20201;-57
2023/05/25 07:32:32;;;;;;;14.57;4.00;;;13.10;99.90;;;;;;5089092;28;20645;-55
2023/05/25 07:34:58;;;;;;;14.43;3.73;;;13.10;99.90;;;;;;5086666;28;20956;-50
2023/05/25 07:37:25;;;;;;;12.60;4.23;;;13.00;99.90;;;;;;5097107;28;20205;-53
2023/05/25 07:39:52;;;;;;;20.23;4.47;;;13.00;99.90;;;;;;5074545;28;20887;-50
2023/05/25 07:42:20;;;;;;;10.90;4.00;;;13.00;99.90;;;;;;5093400;28;20230;-51
2023/05/25 07:44:47;;;;;;;18.07;4.60;;;13.10;99.90;;;;;;5089742;28;20721;-55
2023/05/25 07:47:13;;;;;;;12.00;4.40;;;13.20;99.90;;;;;;5079231;28;20231;-58
2023/05/25 07:49:42;;;;;;;17.53;4.80;;;13.40;99.90;;;;;;5064460;28;20208;-58
2023/05/25 07:52:10;;;;;;;18.30;4.37;;;;;;;;;;5086447;28;20213;-53
2023/05/25 07:54:38;;;;;;;12.50;3.80;;;13.60;99.90;;;;;;5082651;28;20221;-57
2023/05/25 07:57:06;;;;;;;14.23;4.30;;;13.60;99.90;;;;;;5081541;28;21334;-50
2023/05/25 07:59:34;;;;;;;14.77;3.93;;;13.60;99.90;;;;;;5096666;28;20196;-57
2023/05/25 08:02:01;;;;;;;14.67;3.77;;;13.70;99.90;;;;;;5081528;28;20229;-48
2023/05/25 08:04:28;;;;;;;16.07;4.23;;;13.70;99.90;;;;;;5087558;28;20217;-49
2023/05/25 08:06:56;;;;;;;14.40;3.97;;;13.60;99.90;;;;;;5091997;28;20185;-52
2023/05/25 08:09:22;;;;;;;13.20;3.60;;;13.70;99.90;;;;;;5090674;28;20193;-52
2023/05/25 08:11:52;;;;;;;25.37;4.70;;;;;;;;;;5064270;28;20209;-57
2023/05/25 08:14:19;;;;;;;14.30;4.20;;;14.10;99.90;;;;;;5088158;28;20221;-52
2023/05/25 08:16:46;;;;;;;15.47;4.60;;;14.10;99.90;;;;;;5080592;28;20210;-51
2023/05/25 08:19:13;;;;;;;16.87;4.87;;;14.20;99.90;;;;;;5088126;28;20219;-50
2023/05/25 08:21:39;;;;;;;15.20;4.50;;;14.20;99.90;;;;;;5092332;28;20227;-57
2023/05/25 08:24:08;;;;;;;15.40;4.40;;;14.20;99.90;;;;;;5089116;28;20245;-50
2023/05/25 08:26:35;;;;;;;15.83;4.40;;;;;;;;;;5058648;28;21172;-56
2023/05/25 08:29:02;;;;;;;19.00;4.20;;;14.30;99.90;;;;;;5086313;28;20913;-55
2023/05/25 08:31:31;;;;;;;11.43;3.60;;;14.40;99.90;;;;;;5091658;28;20212;-57
2023/05/25 08:33:58;;;;;;;16.00;4.10;;;14.50;99.90;;;;;;5085777;28;20301;-50
2023/05/25 08:36:25;;;;;;;16.87;4.10;;;14.50;99.90;;;;;;5096363;28;20272;-57
2023/05/25 08:38:52;;;;;;;13.43;3.47;;;14.60;99.90;;;;;;5098636;28;20925;-49
2023/05/25 08:41:21;;;;;;;16.23;4.93;;;14.60;99.90;;;;;;5065301;28;20663;-58
2023/05/25 08:43:48;;;;;;;15.00;4.67;;;14.70;99.90;;;;;;5083760;27;20212;-48
2023/05/25 08:46:17;;;;;;;16.10;4.73;;;14.60;99.90;;;;;;5096730;28;20277;-54
2023/05/25 08:48:45;;;;;;;20.60;4.73;;;14.60;99.90;;;;;;5086445;28;20197;-52
2023/05/25 08:51:16;;;;;;;21.53;4.90;;;15.30;99.90;;;;;;5093210;28;20201;-52
2023/05/25 08:53:45;;;;;;;20.37;4.77;;;15.10;99.90;;;;;;5081443;28;20217;-51
2023/05/25 08:56:17;;;;;;;12.63;4.13;;;15.00;99.90;;;;;;5085812;28;20313;-54
2023/05/25 08:58:51;;;;;;;16.63;4.83;;;14.90;99.90;;;;;;5083385;28;20193;-49
2023/05/25 09:01:20;;;;;;;14.73;4.77;;;14.90;99.90;;;;;;5087462;28;20208;-57
2023/05/25 09:03:48;;;;;;;15.03;4.73;;;14.90;99.90;;;;;;5081812;28;20214;-49
2023/05/25 09:06:16;;;;;;;21.90;5.27;;;14.80;99.90;;;;;;5078661;28;20254;-55
2023/05/25 09:08:44;;;;;;;16.63;3.80;;;14.90;99.90;;;;;;5074581;28;20952;-55
2023/05/25 09:11:12;;;;;;;19.37;4.47;;;15.00;99.90;;;;;;5075950;28;20190;-51
2023/05/25 09:13:39;;;;;;;17.63;4.03;;;15.20;99.90;;;;;;5075958;28;20216;-56
2023/05/25 09:16:07;;;;;;;16.43;4.30;;;15.10;99.90;;;;;;5097661;28;20207;-53
2023/05/25 09:18:34;;;;;;;13.63;3.93;;;15.20;99.90;;;;;;5075404;28;20197;-47
2023/05/25 09:21:01;;;;;;;16.93;4.57;;;15.40;99.90;;;;;;5099406;28;20280;-57
2023/05/25 09:23:28;;;;;;;12.97;4.03;;;15.50;99.90;;;;;;5063024;28;20293;-54
2023/05/25 09:25:54;;;;;;;14.97;3.80;;;15.50;99.90;;;;;;5091270;28;20197;-54
2023/05/25 09:28:21;;;;;;;19.13;4.40;;;15.60;99.90;;;;;;5070263;28;20201;-54
2023/05/25 09:30:48;;;;;;;21.20;4.73;;;15.60;99.90;;;;;;5097863;28;20185;-49
2023/05/25 09:33:17;;;;;;;16.00;4.30;;;15.60;99.90;;;;;;5082037;28;20274;-58
2023/05/25 09:35:45;;;;;;;11.00;3.77;;;15.60;99.90;;;;;;5081153;28;20208;-57
2023/05/25 09:38:13;;;;;;;13.23;3.93;;;15.60;99.90;;;;;;5079080;28;20221;-54
2023/05/25 09:40:41;;;;;;;15.97;3.87;;;15.70;99.90;;;;;;5088025;28;20222;-57
2023/05/25 09:43:07;;;;;;;12.87;4.07;;;15.70;99.90;;;;;;5071991;28;20206;-51
2023/05/25 09:45:35;;;;;;;13.37;3.40;;;15.70;99.90;;;;;;5102019;27;20228;-57
2023/05/25 09:48:02;;;;;;;16.80;4.47;;;15.70;99.90;;;;;;5085424;28;20224;-52
2023/05/25 09:50:31;;;;;;;15.77;4.67;;;15.70;99.90;;;;;;5090894;28;20213;-54
2023/05/25 09:52:59;;;;;;;11.80;4.10;;;15.70;99.90;;;;;;5093421;28;20198;-49
2023/05/25 09:55:28;;;;;;;18.57;4.23;;;15.80;99.90;;;;;;5097354;28;20217;-49
2023/05/25 09:57:55;;;;;;;15.70;4.63;;;15.80;99.90;;;;;;5068156;28;21359;-47
2023/05/25 10:00:23;;;;;;;12.50;3.83;;;15.90;99.90;;;;;;5094649;28;20189;-48
2023/05/25 10:02:51;;;;;;;12.77;4.00;;;15.90;99.90;;;;;;5081392;28;20194;-54
2023/05/25 10:05:17;;;;;;;12.80;4.27;;;16.10;99.90;;;;;;5073641;28;20230;-55
2023/05/25 10:07:46;;;;;;;13.00;4.00;;;16.30;99.90;;;;;;5080126;28;20209;-57
2023/05/25 10:10:15;;;;;;;13.40;4.27;;;16.30;99.90;;;;;;5088114;28;20693;-54
2023/05/25 10:12:42;;;;;;;12.33;3.93;;;16.30;99.90;;;;;;5073814;28;20210;-58
2023/05/25 10:15:12;;;;;;;14.07;4.37;;;16.30;99.90;;;;;;5084569;28;20251;-50
2023/05/25 10:17:44;;;;;;;14.80;4.33;;;16.30;99.90;;;;;;5082393;28;20216;-57
2023/05/25 10:20:13;;;;;;;14.73;3.90;;;16.30;99.90;;;;;;5082244;28;20202;-51
2023/05/25 10:22:44;;;;;;;15.33;4.13;;;16.10;99.90;;;;;;5093922;28;20558;-56
2023/05/25 10:25:17;;;;;;;14.73;4.27;;;16.10;99.90;;;;;;5094117;28;20217;-47
2023/05/25 10:27:49;;;;;;;15.83;4.30;;;16.20;99.90;;;;;;5073482;28;20197;-53
2023/05/25 10:30:15;;;;;;;19.37;5.10;;;16.20;99.90;;;;;;5100941;28;20200;-49
2023/05/25 10:32:44;;;;;;;16.17;4.13;;;16.10;99.90;;;;;;5080685;28;20258;-52
2023/05/25 10:35:12;;;;;;;11.03;4.00;;;16.10;99.90;;;;;;5089558;28;20225;-45
2023/05/25 10:37:40;;;;;;;17.90;4.40;;;16.30;99.90;;;;;;5099020;28;20204;-54
2023/05/25 10:40:08;;;;;;;17.50;4.07;;;16.40;99.90;;;;;;5098950;28;20272;-48
2023/05/25 10:42:38;;;;;;;12.37;4.20;;;16.50;99.90;;;;;;5084279;28;20220;-56
2023/05/25 10:45:07;;;;;;;12.83;3.90;;;16.40;99.90;;;;;;5081459;28;20966;-50
2023/05/25 10:47:36;;;;;;;9.40;3.87;;;16.50;99.90;;;;;;5089670;28;20213;-53
2023/05/25 10:50:04;;;;;;;16.97;4.33;;;16.50;99.90;;;;;;5086247;28;20206;-48
2023/05/25 10:52:32;;;;;;;15.60;4.00;;;16.60;99.90;;;;;;5094853;28;20213;-52
2023/05/25 10:55:03;;;;;;;17.30;5.00;;;16.80;99.90;;;;;;5088463;28;20849;-54
2023/05/25 10:57:30;;;;;;;16.03;4.30;;;16.80;99.90;;;;;;5092873;28;20206;-48
2023/05/25 11:00:06;;;;;;;13.47;3.90;;;16.70;99.90;;;;;;5066510;28;20216;-54
2023/05/25 11:02:50;;;;;;;17.33;4.33;;;16.60;99.90;;;;;;5087767;28;20194;-53
2023/05/25 11:05:36;;;;;;;16.20;4.33;;;16.60;99.90;;;;;;5088816;28;20220;-47
2023/05/25 11:08:05;;;;;;;12.93;3.80;;;16.60;99.90;;;;;;5091394;28;20202;-52
2023/05/25 11:10:52;;;;;;;18.57;4.00;;;16.60;99.90;;;;;;5093954;28;20212;-52
2023/05/25 11:13:35;;;;;;;15.83;4.47;;;16.70;99.90;;;;;;5089183;28;20209;-52
2023/05/25 11:16:13;;;;;;;7.73;3.10;;;16.70;99.90;;;;;;5077221;28;20201;-48
2023/05/25 11:18:42;;;;;;;12.77;3.90;;;16.70;99.90;;;;;;5097580;28;20211;-55
2023/05/25 11:21:13;;;;;;;18.67;4.97;;;16.90;99.90;;;;;;5089679;28;20192;-49
2023/05/25 11:23:53;;;;;;;16.37;4.57;;;16.80;99.90;;;;;;5094858;28;20201;-53
2023/05/25 11:26:24;;;;;;;15.90;4.30;;;16.80;99.90;;;;;;5085431;28;20209;-49
2023/05/25 11:28:52;;;;;;;12.97;4.93;;;16.80;99.90;;;;;;5080516;28;20221;-52
2023/05/25 11:31:28;;;;;;;16.17;5.07;;;17.00;99.90;;;;;;5075285;28;20211;-47
2023/05/25 11:33:57;;;;;;;14.17;4.50;;;17.10;99.90;;;;;;5092484;28;20235;-46
2023/05/25 11:36:25;;;;;;;14.93;4.10;;;17.10;99.90;;;;;;5096693;28;20251;-49
2023/05/25 11:38:53;;;;;;;13.90;4.90;;;17.10;99.90;;;;;;5082085;28;20972;-51
2023/05/25 11:41:20;;;;;;;15.03;4.87;;;17.00;99.90;;;;;;5080998;28;20208;-49
2023/05/25 11:43:48;;;;;;;18.70;4.63;;;17.00;99.90;;;;;;5088738;28;20220;-55
2023/05/25 11:46:17;;;;;;;14.73;4.80;;;17.20;99.70;;;;;;5079278;28;20209;-48
2023/05/25 11:48:47;;;;;;;17.10;4.60;;;;;;;;;;5090602;28;20710;-55
2023/05/25 11:51:13;;;;;;;13.43;4.67;;;17.40;99.90;;;;;;5094055;28;20197;-46
2023/05/25 11:53:44;;;;;;;13.50;4.43;;;17.40;98.60;;;;;;5078624;28;20221;-56
2023/05/25 11:56:12;;;;;;;18.87;4.30;;;17.40;98.60;;;;;;5081658;28;20192;-52
2023/05/25 11:58:39;;;;;;;16.83;4.60;;;17.50;98.40;;;;;;5091290;28;20205;-54
2023/05/25 12:01:15;;;;;;;14.20;4.80;;;17.50;98.60;;;;;;5070736;28;20193;-51
2023/05/25 12:03:42;;;;;;;13.90;4.40;;;17.60;99.90;;;;;;5094284;28;20196;-55
2023/05/25 12:06:23;;;;;;;17.00;4.43;;;17.80;99.90;;;;;;5097956;28;20182;-47
2023/05/25 12:08:50;;;;;;;15.47;4.90;;;17.70;99.90;;;;;;5085682;28;20570;-56
2023/05/25 12:11:17;;;;;;;14.97;4.23;;;17.90;99.90;;;;;;5088874;28;20201;-50
2023/05/25 12:13:44;;;;;;;15.73;5.07;;;18.00;99.90;;;;;;5100257;28;20220;-54
2023/05/25 12:16:11;;;;;;;15.30;4.40;;;;;;;;;;5081626;28;20201;-54
2023/05/25 12:18:39;;;;;;;19.43;5.13;;;;;;;;;;5095683;28;20276;-52
2023/05/25 12:21:07;;;;;;;14.33;4.17;;;;;;;;;;5083181;28;20205;-52
2023/05/25 12:23:36;;;;;;;12.03;3.90;;;;;;;;;;5090417;28;20201;-49
2023/05/25 12:26:11;;;;;;;10.87;3.37;;;;;;;;;;5092198;28;20209;-50
2023/05/25 12:28:38;;;;;;;13.73;5.00;;;;;;;;;;5091411;28;20200;-50
2023/05/25 12:31:21;;;;;;;12.57;3.80;;;;;;;;;;5074474;28;20255;-54
2023/05/25 12:34:02;;;;;;;16.70;4.60;;;;;;;;;;5089715;28;20233;-53
2023/05/25 12:36:37;;;;;;;17.90;4.37;;;;;;;;;;5082529;28;20197;-53
2023/05/25 12:39:06;;;;;;;13.20;3.80;;;18.80;99.90;;;;;;5090383;28;20197;-50
2023/05/25 12:41:42;;;;;;;13.27;4.13;;;18.80;95.30;;;;;;5088321;28;20208;-56
2023/05/25 12:44:26;;;;;;;17.33;5.10;;;18.90;94.60;;;;;;5102368;28;20891;-50
2023/05/25 12:46:55;;;;;;;12.40;4.30;;;18.80;95.50;;;;;;5072495;28;20235;-47
2023/05/25 12:49:27;;;;;;;12.10;4.47;;;19.10;95.60;;;;;;5091674;28;20249;-53
2023/05/25 12:51:53;;;;;;;15.27;4.80;;;19.60;95.40;;;;;;5092950;28;20280;-54